Time;durP1;ratioP1;P1;durP2;ratioP2;P2;SDS_P1;SDS_P2;PMS_P1;PMS_P2;Temp;Humidity;BMP_temperature;BMP_pressure;BME280_temperature;BME280_humidity;BME280_pressure;Samples;Min_cycle;Max_cycle;Signal;HPM_P1;HPM_P2
2021/03/03 00:00:58;;;;;;;23.53;12.27;;;3.90;99.90;;;;;;5066009;28;20456;-54
2021/03/03 00:03:24;;;;;;;20.07;11.40;;;3.90;99.90;;;;;;5070384;28;20459;-54
2021/03/03 00:05:51;;;;;;;15.63;10.20;;;4.00;99.90;;;;;;5061319;28;20827;-53
2021/03/03 00:08:17;;;;;;;20.87;10.93;;;4.00;99.90;;;;;;5062345;28;20475;-54
2021/03/03 00:10:44;;;;;;;22.70;12.07;;;4.00;99.90;;;;;;5053511;28;20868;-54
2021/03/03 00:13:11;;;;;;;16.87;10.13;;;4.00;99.90;;;;;;5053584;28;20473;-54
2021/03/03 00:15:38;;;;;;;18.53;11.07;;;4.10;99.90;;;;;;5053997;28;20452;-53
2021/03/03 00:18:05;;;;;;;21.30;11.83;;;4.10;99.90;;;;;;5053621;28;20484;-54
2021/03/03 00:20:31;;;;;;;17.63;10.07;;;4.10;99.90;;;;;;5063737;28;20508;-53
2021/03/03 00:22:58;;;;;;;18.13;11.00;;;4.10;99.90;;;;;;5054133;28;20459;-54
2021/03/03 00:25:24;;;;;;;20.10;11.00;;;4.20;99.90;;;;;;5061039;28;20489;-54
2021/03/03 00:27:51;;;;;;;22.60;11.40;;;4.10;99.90;;;;;;5065077;28;20471;-54
2021/03/03 00:30:19;;;;;;;20.33;11.43;;;4.10;99.90;;;;;;5061806;28;20537;-54
2021/03/03 00:32:46;;;;;;;22.57;13.10;;;4.10;99.90;;;;;;5073131;28;20797;-54
2021/03/03 00:35:13;;;;;;;24.13;11.20;;;4.10;99.90;;;;;;5070901;28;20451;-54
2021/03/03 00:37:40;;;;;;;24.07;12.10;;;4.00;99.90;;;;;;5071553;28;20494;-54
2021/03/03 00:40:08;;;;;;;22.80;11.90;;;4.00;99.90;;;;;;5059971;28;20456;-54
2021/03/03 00:42:35;;;;;;;23.50;12.70;;;3.80;99.90;;;;;;5053998;28;20961;-54
2021/03/03 00:45:02;;;;;;;23.30;12.43;;;3.90;99.90;;;;;;5056975;28;20447;-54
2021/03/03 00:47:29;;;;;;;19.33;11.50;;;3.80;99.90;;;;;;5072907;28;20493;-54
2021/03/03 00:49:56;;;;;;;21.93;11.53;;;3.70;99.90;;;;;;5072583;28;20451;-54
2021/03/03 00:52:22;;;;;;;22.30;11.73;;;3.70;99.90;;;;;;5072660;28;20510;-54
2021/03/03 00:54:49;;;;;;;21.57;11.67;;;3.80;99.90;;;;;;5069383;28;20884;-53
2021/03/03 00:57:16;;;;;;;18.20;11.60;;;3.80;99.90;;;;;;5072741;28;20474;-54
2021/03/03 00:59:43;;;;;;;29.60;13.93;;;3.60;99.90;;;;;;5063866;28;20838;-53
2021/03/03 01:02:09;;;;;;;21.77;11.67;;;3.70;99.90;;;;;;5052934;28;20478;-54
2021/03/03 01:04:38;;;;;;;20.80;12.73;;;3.60;99.90;;;;;;5052970;28;20451;-53
2021/03/03 01:07:04;;;;;;;23.77;12.03;;;3.70;99.90;;;;;;5070749;28;21072;-54
2021/03/03 01:09:31;;;;;;;26.53;14.07;;;3.70;99.90;;;;;;5055585;28;20447;-54
2021/03/03 01:11:57;;;;;;;20.77;12.07;;;3.50;99.90;;;;;;5052536;28;20455;-54
2021/03/03 01:14:24;;;;;;;22.37;12.70;;;3.50;99.90;;;;;;5052215;28;20858;-54
2021/03/03 01:16:52;;;;;;;22.80;11.00;;;3.30;99.90;;;;;;5052205;28;20820;-53
2021/03/03 01:19:19;;;;;;;23.50;13.23;;;2.80;99.90;;;;;;5053015;28;20945;-54
2021/03/03 01:21:46;;;;;;;22.43;11.37;;;2.90;99.90;;;;;;5067421;28;20972;-53
2021/03/03 01:24:13;;;;;;;23.80;11.53;;;3.00;99.90;;;;;;5065935;28;20447;-53
2021/03/03 01:26:40;;;;;;;24.43;12.43;;;3.00;99.90;;;;;;5072178;28;20522;-53
2021/03/03 01:29:09;;;;;;;21.60;11.93;;;3.20;99.90;;;;;;5062346;28;21003;-53
2021/03/03 01:31:35;;;;;;;21.80;12.20;;;3.20;99.90;;;;;;5067088;28;20450;-54
2021/03/03 01:34:02;;;;;;;23.40;11.33;;;3.30;99.90;;;;;;5059431;28;20446;-53
2021/03/03 01:36:29;;;;;;;24.00;12.23;;;3.30;99.90;;;;;;5071412;28;20447;-54
2021/03/03 01:38:57;;;;;;;26.87;12.30;;;3.60;99.90;;;;;;5068995;28;21021;-53
2021/03/03 01:41:23;;;;;;;22.87;12.60;;;3.70;99.90;;;;;;5071788;28;20450;-53
2021/03/03 01:43:50;;;;;;;20.60;12.17;;;3.80;99.90;;;;;;5067407;28;20454;-53
2021/03/03 01:46:16;;;;;;;20.03;11.80;;;3.80;99.90;;;;;;5071219;28;20490;-54
2021/03/03 01:48:43;;;;;;;24.50;13.10;;;3.70;99.90;;;;;;5067971;28;20854;-54
2021/03/03 01:51:09;;;;;;;22.90;13.00;;;3.70;99.90;;;;;;5071317;28;20462;-53
2021/03/03 01:53:36;;;;;;;24.37;12.70;;;3.70;99.90;;;;;;5070141;28;20865;-54
2021/03/03 01:56:04;;;;;;;24.20;13.23;;;3.50;99.90;;;;;;5052914;28;20447;-54
2021/03/03 01:58:31;;;;;;;24.10;13.60;;;3.30;99.90;;;;;;5053805;28;20484;-54
2021/03/03 02:00:57;;;;;;;22.27;12.27;;;3.30;99.90;;;;;;5070884;28;20447;-54
2021/03/03 02:03:24;;;;;;;24.43;11.60;;;3.30;99.90;;;;;;5068494;28;20443;-54
2021/03/03 02:05:55;;;;;;;24.30;12.60;;;3.50;99.90;;;;;;5059571;28;20479;-53
2021/03/03 02:08:29;;;;;;;23.57;13.13;;;3.60;99.90;;;;;;5055001;28;21016;-53
2021/03/03 02:11:01;;;;;;;21.47;12.30;;;3.40;99.90;;;;;;5064903;28;20526;-54
2021/03/03 02:13:32;;;;;;;24.27;12.17;;;3.50;99.90;;;;;;5069291;28;20450;-54
2021/03/03 02:16:01;;;;;;;21.77;11.93;;;3.40;99.90;;;;;;5070871;28;20445;-53
2021/03/03 02:18:29;;;;;;;24.60;12.70;;;3.40;99.90;;;;;;5069340;28;20871;-54
2021/03/03 02:21:03;;;;;;;24.83;13.20;;;3.40;99.90;;;;;;5070362;28;20458;-53
2021/03/03 02:23:42;;;;;;;26.33;12.90;;;3.40;99.90;;;;;;5054065;28;20451;-53
2021/03/03 02:26:10;;;;;;;21.47;12.73;;;3.30;99.90;;;;;;5070542;28;20540;-54
2021/03/03 02:28:37;;;;;;;27.47;13.07;;;3.30;99.90;;;;;;5052112;28;20822;-53
2021/03/03 02:31:05;;;;;;;24.43;13.97;;;3.30;99.90;;;;;;5050899;28;20447;-54
2021/03/03 02:33:33;;;;;;;22.50;12.33;;;3.30;99.90;;;;;;5051441;28;20448;-53
2021/03/03 02:36:00;;;;;;;24.13;12.70;;;3.20;99.90;;;;;;5057585;28;20981;-53
2021/03/03 02:38:28;;;;;;;22.40;12.93;;;3.10;99.90;;;;;;5063332;28;20475;-53
2021/03/03 02:40:55;;;;;;;22.77;13.07;;;3.10;99.90;;;;;;5067425;28;20451;-54
2021/03/03 02:43:25;;;;;;;21.80;13.10;;;2.90;99.90;;;;;;5062510;28;20455;-54
2021/03/03 02:45:52;;;;;;;25.03;12.40;;;2.90;99.90;;;;;;5063487;28;20476;-54
2021/03/03 02:48:19;;;;;;;22.50;13.07;;;3.00;99.90;;;;;;5070756;28;20470;-53
2021/03/03 02:50:46;;;;;;;26.97;12.90;;;3.00;99.90;;;;;;5067557;28;20451;-54
2021/03/03 02:53:12;;;;;;;22.73;12.20;;;3.00;99.90;;;;;;5050684;28;20454;-53
2021/03/03 02:55:39;;;;;;;23.63;13.10;;;3.10;99.90;;;;;;5050730;28;20472;-53
2021/03/03 02:58:06;;;;;;;23.87;13.20;;;3.00;99.90;;;;;;5064224;28;20479;-53
2021/03/03 03:00:36;;;;;;;23.60;13.47;;;2.90;99.90;;;;;;5070451;28;20442;-53
2021/03/03 03:03:12;;;;;;;23.33;13.20;;;2.70;99.90;;;;;;5053697;28;20452;-53
2021/03/03 03:05:42;;;;;;;25.37;13.40;;;2.80;99.90;;;;;;5062182;28;20991;-53
2021/03/03 03:08:11;;;;;;;25.93;13.17;;;3.00;99.90;;;;;;5070440;28;20473;-53
2021/03/03 03:10:38;;;;;;;25.63;12.27;;;3.00;99.90;;;;;;5070234;28;20504;-53
2021/03/03 03:13:09;;;;;;;23.60;12.83;;;3.00;99.90;;;;;;5069741;28;20450;-53
2021/03/03 03:15:38;;;;;;;22.97;13.40;;;2.80;99.90;;;;;;5060226;28;20450;-53
2021/03/03 03:18:08;;;;;;;26.67;13.70;;;2.90;99.90;;;;;;5050336;28;21008;-53
2021/03/03 03:20:36;;;;;;;24.50;13.23;;;3.00;99.90;;;;;;5051448;28;20461;-53
2021/03/03 03:23:04;;;;;;;30.63;14.93;;;2.50;99.90;;;;;;5050536;28;20452;-53
2021/03/03 03:25:32;;;;;;;24.50;12.90;;;2.20;99.90;;;;;;5060416;28;20875;-54
2021/03/03 03:28:00;;;;;;;25.93;13.87;;;2.20;99.90;;;;;;5064861;28;20516;-53
2021/03/03 03:30:28;;;;;;;27.87;13.50;;;2.20;99.90;;;;;;5071690;28;20515;-53
2021/03/03 03:32:59;;;;;;;25.20;13.37;;;2.30;99.90;;;;;;5066015;28;20457;-53
2021/03/03 03:35:27;;;;;;;24.47;13.50;;;2.30;99.90;;;;;;5061855;28;20452;-53
2021/03/03 03:37:55;;;;;;;27.90;14.07;;;2.50;99.90;;;;;;5058490;28;20471;-53
2021/03/03 03:40:23;;;;;;;23.17;12.57;;;2.50;99.90;;;;;;5068244;28;20463;-53
2021/03/03 03:42:54;;;;;;;26.17;13.67;;;2.50;99.90;;;;;;5074332;28;20511;-53
2021/03/03 03:45:22;;;;;;;23.87;13.00;;;2.60;99.90;;;;;;5066239;28;20464;-53
2021/03/03 03:47:49;;;;;;;23.93;13.10;;;2.60;99.90;;;;;;5074248;28;21246;-53
2021/03/03 03:50:18;;;;;;;24.87;13.20;;;2.50;99.90;;;;;;5066087;28;20454;-53
2021/03/03 03:52:45;;;;;;;26.57;13.27;;;2.50;99.90;;;;;;5071968;28;20959;-53
2021/03/03 03:55:12;;;;;;;22.47;11.80;;;2.60;99.90;;;;;;5067110;28;20502;-53
2021/03/03 03:57:48;;;;;;;23.80;13.37;;;2.60;99.90;;;;;;5072884;28;20461;-53
2021/03/03 04:00:17;;;;;;;23.17;12.40;;;2.50;99.90;;;;;;5073436;28;21034;-53
2021/03/03 04:02:44;;;;;;;24.00;12.73;;;2.30;99.90;;;;;;5069239;28;20448;-53
2021/03/03 04:05:12;;;;;;;29.00;13.60;;;2.40;99.90;;;;;;5058101;28;20508;-53
2021/03/03 04:07:40;;;;;;;23.67;12.87;;;2.40;99.90;;;;;;5053529;28;20558;-53
2021/03/03 04:10:09;;;;;;;23.50;12.80;;;2.50;99.90;;;;;;5064078;28;20454;-53
2021/03/03 04:12:35;;;;;;;25.05;13.90;;;2.50;99.90;;;;;;5067704;28;20446;-54
2021/03/03 04:15:03;;;;;;;21.90;12.77;;;2.30;99.90;;;;;;5067963;28;20205;-53
2021/03/03 04:17:33;;;;;;;26.17;13.83;;;2.40;99.90;;;;;;5061404;28;20959;-54
2021/03/03 04:19:59;;;;;;;24.47;13.10;;;2.50;99.90;;;;;;5060144;28;20444;-53
2021/03/03 04:22:28;;;;;;;22.73;13.17;;;2.60;99.90;;;;;;5068674;28;20454;-54
2021/03/03 04:24:58;;;;;;;24.80;13.07;;;2.50;99.90;;;;;;5053479;28;20544;-53
2021/03/03 04:27:24;;;;;;;29.97;13.70;;;2.50;99.90;;;;;;5052900;28;20499;-54
2021/03/03 04:29:51;;;;;;;23.23;12.93;;;2.50;99.90;;;;;;5060804;28;20870;-54
2021/03/03 04:32:17;;;;;;;27.03;13.13;;;2.50;99.90;;;;;;5070878;28;20676;-53
2021/03/03 04:34:44;;;;;;;23.83;13.60;;;2.50;99.90;;;;;;5072609;28;20451;-53
2021/03/03 04:37:10;;;;;;;22.83;12.43;;;2.50;99.90;;;;;;5069119;28;20459;-53
2021/03/03 04:39:37;;;;;;;24.10;13.27;;;2.60;99.90;;;;;;5056462;28;20473;-53
2021/03/03 04:42:05;;;;;;;20.37;12.67;;;2.60;99.90;;;;;;5051219;28;20443;-53
2021/03/03 04:44:32;;;;;;;26.37;14.10;;;2.60;99.90;;;;;;5054853;28;20485;-53
2021/03/03 04:46:59;;;;;;;27.70;14.50;;;2.60;99.90;;;;;;5064571;28;20992;-53
2021/03/03 04:49:26;;;;;;;24.63;13.00;;;2.60;99.90;;;;;;5057927;28;20471;-53
2021/03/03 04:51:53;;;;;;;23.40;12.83;;;2.50;99.90;;;;;;5052424;28;20505;-53
2021/03/03 04:54:20;;;;;;;26.90;13.93;;;2.40;99.90;;;;;;5056772;28;20458;-54
2021/03/03 04:56:46;;;;;;;28.73;13.73;;;2.40;99.90;;;;;;5072478;28;20446;-53
2021/03/03 04:59:13;;;;;;;23.90;13.40;;;2.30;99.90;;;;;;5069453;28;20451;-53
2021/03/03 05:01:40;;;;;;;24.50;13.23;;;2.40;99.90;;;;;;5059410;28;20474;-53
2021/03/03 05:04:07;;;;;;;25.10;12.93;;;2.40;99.90;;;;;;5060876;28;20508;-53
2021/03/03 05:06:33;;;;;;;25.20;13.37;;;2.40;99.90;;;;;;5051000;28;20515;-53
2021/03/03 05:09:00;;;;;;;24.60;12.33;;;2.40;99.90;;;;;;5067756;28;20474;-53
2021/03/03 05:11:26;;;;;;;25.43;13.17;;;2.20;99.90;;;;;;5061087;28;20447;-53
2021/03/03 05:13:53;;;;;;;28.37;13.23;;;2.30;99.90;;;;;;5072426;28;20443;-53
2021/03/03 05:16:20;;;;;;;21.57;12.70;;;2.30;99.90;;;;;;5056358;28;20878;-53
2021/03/03 05:18:47;;;;;;;23.67;14.00;;;2.40;99.90;;;;;;5051748;28;20479;-54
2021/03/03 05:21:13;;;;;;;29.17;14.00;;;2.40;99.90;;;;;;5056978;28;20455;-54
2021/03/03 05:23:40;;;;;;;24.87;13.37;;;2.40;99.90;;;;;;5056066;28;20957;-53
2021/03/03 05:26:08;;;;;;;24.17;13.67;;;2.40;99.90;;;;;;5062566;28;20569;-53
2021/03/03 05:28:34;;;;;;;21.47;12.70;;;2.30;99.90;;;;;;5058811;28;20498;-52
2021/03/03 05:31:01;;;;;;;25.57;14.23;;;2.40;99.90;;;;;;5068281;28;20461;-52
2021/03/03 05:33:30;;;;;;;28.87;14.20;;;2.40;99.90;;;;;;5055631;28;20442;-52
2021/03/03 05:35:59;;;;;;;24.73;13.20;;;2.40;99.90;;;;;;5062295;28;20470;-53
2021/03/03 05:38:26;;;;;;;27.80;14.03;;;2.40;99.90;;;;;;5071730;28;20470;-53
2021/03/03 05:40:57;;;;;;;29.40;13.80;;;2.20;99.90;;;;;;5063989;28;20449;-53
2021/03/03 05:43:24;;;;;;;25.70;13.70;;;2.20;99.90;;;;;;5065331;28;20469;-52
2021/03/03 05:45:51;;;;;;;27.63;13.90;;;2.10;99.90;;;;;;5071015;28;20560;-53
2021/03/03 05:48:25;;;;;;;24.43;12.83;;;2.10;99.90;;;;;;5071574;28;20477;-53
2021/03/03 05:50:56;;;;;;;24.57;13.63;;;2.20;99.90;;;;;;5056220;28;20806;-52
2021/03/03 05:53:23;;;;;;;27.83;14.80;;;2.20;99.90;;;;;;5050991;28;20439;-53
2021/03/03 05:55:52;;;;;;;29.80;13.87;;;2.20;99.90;;;;;;5050834;28;20501;-54
2021/03/03 05:58:19;;;;;;;28.83;14.30;;;2.30;99.90;;;;;;5050764;28;20824;-53
2021/03/03 06:00:49;;;;;;;29.93;15.17;;;2.40;99.90;;;;;;5065027;28;21234;-53
2021/03/03 06:03:17;;;;;;;30.13;16.00;;;2.20;99.90;;;;;;5070945;28;20461;-53
2021/03/03 06:05:47;;;;;;;31.40;16.30;;;2.20;99.90;;;;;;5070342;28;20956;-52
2021/03/03 06:08:16;;;;;;;30.70;16.10;;;2.30;99.90;;;;;;5062313;28;20497;-53
2021/03/03 06:10:43;;;;;;;28.57;15.30;;;2.30;99.90;;;;;;5057285;28;20455;-53
2021/03/03 06:13:10;;;;;;;31.53;16.90;;;2.40;99.90;;;;;;5051192;28;20452;-52
2021/03/03 06:15:38;;;;;;;31.83;16.60;;;2.40;99.90;;;;;;5050593;28;20790;-53
2021/03/03 06:18:07;;;;;;;28.00;16.30;;;2.50;99.90;;;;;;5050575;28;21088;-53
2021/03/03 06:20:37;;;;;;;44.43;22.33;;;2.40;99.90;;;;;;5062384;28;20469;-52
2021/03/03 06:23:14;;;;;;;36.60;18.80;;;2.40;99.90;;;;;;5071144;28;20446;-53
2021/03/03 06:25:42;;;;;;;42.00;19.90;;;2.30;99.90;;;;;;5066521;28;20458;-52
2021/03/03 06:28:09;;;;;;;44.53;20.60;;;2.40;99.90;;;;;;5054423;28;20926;-52
2021/03/03 06:30:36;;;;;;;42.43;19.40;;;2.40;99.90;;;;;;5050596;28;20940;-53
2021/03/03 06:33:04;;;;;;;42.03;19.23;;;2.40;99.90;;;;;;5050746;28;20474;-52
2021/03/03 06:35:42;;;;;;;40.83;19.77;;;2.40;99.90;;;;;;5060626;28;20457;-52
2021/03/03 06:38:10;;;;;;;42.00;19.20;;;2.40;99.90;;;;;;5061767;28;20506;-53
2021/03/03 06:40:51;;;;;;;36.53;18.53;;;2.30;99.90;;;;;;5051566;28;20957;-53
2021/03/03 06:43:19;;;;;;;36.90;17.17;;;2.20;99.90;;;;;;5050628;28;20447;-53
2021/03/03 06:45:46;;;;;;;32.87;17.67;;;2.30;99.90;;;;;;5057609;28;20447;-53
2021/03/03 06:48:12;;;;;;;34.90;18.27;;;2.40;99.90;;;;;;5070305;28;20888;-52
2021/03/03 06:50:40;;;;;;;46.17;22.40;;;2.50;99.90;;;;;;5058807;28;20452;-52
2021/03/03 06:53:07;;;;;;;38.13;20.00;;;2.40;99.90;;;;;;5050344;28;20463;-52
2021/03/03 06:55:47;;;;;;;45.03;20.30;;;2.50;99.90;;;;;;5050274;28;20574;-52
2021/03/03 06:58:29;;;;;;;36.03;18.70;;;2.60;99.90;;;;;;5050061;28;20464;-53
2021/03/03 07:00:57;;;;;;;40.23;19.30;;;2.70;99.90;;;;;;5049998;28;20944;-52
2021/03/03 07:03:53;;;;;;;41.23;18.60;;;2.60;99.90;;;;;;5051558;28;20986;-53
2021/03/03 07:06:32;;;;;;;40.50;19.20;;;2.70;99.90;;;;;;5048699;28;20486;-53
2021/03/03 07:08:59;;;;;;;40.60;19.23;;;2.90;99.90;;;;;;5050075;28;20558;-52
2021/03/03 07:11:29;;;;;;;37.40;18.47;;;3.10;99.90;;;;;;5050244;28;20448;-53
2021/03/03 07:13:57;;;;;;;36.27;18.40;;;3.20;99.90;;;;;;5050707;28;20456;-53
2021/03/03 07:16:23;;;;;;;40.50;18.63;;;3.30;99.90;;;;;;5050378;28;20444;-53
2021/03/03 07:18:50;;;;;;;31.90;17.93;;;3.30;99.90;;;;;;5051380;28;20572;-52
2021/03/03 07:21:36;;;;;;;39.50;18.57;;;3.30;99.90;;;;;;5062835;28;20450;-53
2021/03/03 07:24:03;;;;;;;60.47;18.97;;;3.40;99.90;;;;;;5070340;28;20457;-53
2021/03/03 07:26:30;;;;;;;55.77;28.30;;;3.40;99.90;;;;;;5070313;28;20489;-54
2021/03/03 07:28:58;;;;;;;46.20;22.20;;;3.60;99.90;;;;;;5070438;28;20474;-53
2021/03/03 07:31:25;;;;;;;52.40;26.13;;;3.70;99.90;;;;;;5070081;28;20446;-53
2021/03/03 07:33:53;;;;;;;51.93;24.60;;;3.80;99.90;;;;;;5069909;28;20457;-53
2021/03/03 07:36:21;;;;;;;40.80;20.77;;;3.90;99.90;;;;;;5049961;28;20446;-53
2021/03/03 07:38:49;;;;;;;37.37;20.70;;;3.80;99.90;;;;;;5050340;28;20475;-54
2021/03/03 07:41:17;;;;;;;42.93;19.57;;;3.70;99.90;;;;;;5050420;28;20454;-53
2021/03/03 07:43:49;;;;;;;31.23;17.13;;;3.80;99.90;;;;;;5049904;28;20438;-53
2021/03/03 07:46:19;;;;;;;28.60;16.20;;;3.70;99.90;;;;;;5048915;28;20217;-52
2021/03/03 07:48:51;;;;;;;27.87;16.40;;;3.80;99.90;;;;;;5049698;28;20475;-54
2021/03/03 07:51:19;;;;;;;29.63;15.70;;;4.00;99.90;;;;;;5049995;28;21128;-53
2021/03/03 07:53:46;;;;;;;30.67;16.23;;;4.20;99.90;;;;;;5054582;28;20453;-53
2021/03/03 07:56:15;;;;;;;26.30;14.23;;;4.20;99.90;;;;;;5069611;28;20691;-53
2021/03/03 07:58:42;;;;;;;35.10;19.53;;;4.30;99.90;;;;;;5069647;28;20489;-53
2021/03/03 08:01:11;;;;;;;38.37;19.20;;;4.50;99.90;;;;;;5052080;28;20459;-53
2021/03/03 08:03:43;;;;;;;30.13;18.03;;;4.40;99.90;;;;;;5049890;28;20852;-53
2021/03/03 08:06:34;;;;;;;34.03;17.77;;;4.50;99.90;;;;;;5050611;28;20476;-53
2021/03/03 08:09:18;;;;;;;31.27;16.87;;;4.70;99.90;;;;;;5050271;28;20468;-52
2021/03/03 08:12:02;;;;;;;30.53;16.83;;;4.60;99.90;;;;;;5049808;28;20450;-53
2021/03/03 08:14:37;;;;;;;30.43;16.07;;;4.50;99.90;;;;;;5049732;28;21050;-53
2021/03/03 08:17:06;;;;;;;37.43;15.57;;;4.40;99.90;;;;;;5051848;28;20482;-52
2021/03/03 08:19:55;;;;;;;41.23;17.40;;;4.50;99.90;;;;;;5053593;28;20449;-52
2021/03/03 08:22:48;;;;;;;37.77;18.70;;;4.80;99.90;;;;;;5053323;28;20458;-53
2021/03/03 08:25:49;;;;;;;36.30;18.80;;;5.00;99.90;;;;;;5053186;28;20994;-53
2021/03/03 08:28:33;;;;;;;43.63;21.03;;;5.20;99.90;;;;;;5053471;28;20467;-53
2021/03/03 08:31:36;;;;;;;46.00;21.50;;;5.30;99.90;;;;;;5053610;28;20444;-53
2021/03/03 08:34:07;;;;;;;41.23;21.00;;;5.50;99.90;;;;;;5053436;28;20941;-53
2021/03/03 08:37:00;;;;;;;38.93;21.33;;;5.60;99.90;;;;;;5053005;28;20501;-54
2021/03/03 08:39:38;;;;;;;44.57;22.50;;;5.70;99.90;;;;;;5057307;28;20451;-53
2021/03/03 08:42:41;;;;;;;49.37;22.50;;;5.80;99.90;;;;;;5073148;28;20447;-53
2021/03/03 08:45:13;;;;;;;53.80;23.57;;;5.90;99.90;;;;;;5072696;28;20501;-53
2021/03/03 08:47:57;;;;;;;52.03;24.03;;;5.90;99.90;;;;;;5073036;28;20502;-53
2021/03/03 08:50:31;;;;;;;44.40;25.77;;;6.00;99.90;;;;;;5072831;28;20505;-54
2021/03/03 08:53:30;;;;;;;50.53;24.30;;;6.10;99.90;;;;;;5072995;28;20464;-53
2021/03/03 08:55:58;;;;;;;58.30;26.23;;;6.30;99.90;;;;;;5060929;28;20447;-53
2021/03/03 08:58:52;;;;;;;51.40;24.90;;;6.40;99.90;;;;;;5072650;28;20473;-53
2021/03/03 09:01:20;;;;;;;44.10;23.90;;;6.60;99.90;;;;;;5072778;28;20830;-52
2021/03/03 09:03:52;;;;;;;51.50;24.60;;;6.80;99.90;;;;;;5072756;28;20466;-53
2021/03/03 09:06:25;;;;;;;47.73;24.57;;;6.90;99.90;;;;;;5072634;28;20518;-53
2021/03/03 09:09:01;;;;;;;43.53;23.50;;;7.00;99.90;;;;;;5072722;28;20467;-53
2021/03/03 09:11:27;;;;;;;43.50;21.80;;;7.30;99.90;;;;;;5072695;28;20451;-53
2021/03/03 09:13:57;;;;;;;39.67;19.83;;;7.50;99.90;;;;;;5070855;28;20451;-54
2021/03/03 09:16:23;;;;;;;31.77;19.47;;;7.60;99.90;;;;;;5060245;28;20451;-53
2021/03/03 09:19:07;;;;;;;29.00;17.10;;;7.50;99.90;;;;;;5071579;28;20910;-54
2021/03/03 09:21:34;;;;;;;26.63;14.67;;;7.70;99.90;;;;;;5070416;28;20442;-53
2021/03/03 09:24:09;;;;;;;24.30;14.00;;;7.60;99.90;;;;;;5070647;28;20458;-54
2021/03/03 09:26:36;;;;;;;24.23;14.60;;;7.90;99.90;;;;;;5062912;28;20899;-54
2021/03/03 09:29:03;;;;;;;21.90;13.70;;;7.90;99.90;;;;;;5055643;28;20478;-54
2021/03/03 09:31:31;;;;;;;22.90;12.23;;;7.90;99.90;;;;;;5052322;28;20949;-53
2021/03/03 09:33:58;;;;;;;33.27;13.50;;;7.90;99.90;;;;;;5052169;28;20446;-53
2021/03/03 09:36:25;;;;;;;21.13;13.00;;;8.00;99.90;;;;;;5051996;28;20443;-54
2021/03/03 09:38:57;;;;;;;27.77;12.87;;;8.00;99.90;;;;;;5059963;28;20853;-54
2021/03/03 09:41:25;;;;;;;25.40;13.40;;;7.50;99.90;;;;;;5068877;28;20454;-53
2021/03/03 09:44:03;;;;;;;24.03;13.30;;;7.70;99.90;;;;;;5056441;28;20458;-54
2021/03/03 09:46:53;;;;;;;23.73;14.60;;;7.80;99.90;;;;;;5061364;28;20516;-53
2021/03/03 09:49:24;;;;;;;26.47;14.37;;;8.10;99.90;;;;;;5070706;28;20447;-54
2021/03/03 09:51:50;;;;;;;24.00;14.93;;;8.30;99.90;;;;;;5051557;28;20447;-53
2021/03/03 09:54:31;;;;;;;27.23;14.40;;;8.40;99.90;;;;;;5051418;28;20459;-54
2021/03/03 09:57:08;;;;;;;28.00;14.77;;;8.30;99.90;;;;;;5056563;28;20461;-54
2021/03/03 09:59:36;;;;;;;24.97;13.47;;;8.40;99.90;;;;;;5056925;28;20459;-53
2021/03/03 10:02:04;;;;;;;22.73;13.80;;;8.40;99.90;;;;;;5051735;28;20450;-54
2021/03/03 10:04:31;;;;;;;25.97;14.67;;;8.50;99.90;;;;;;5051581;28;20505;-54
2021/03/03 10:06:59;;;;;;;26.80;14.80;;;8.70;99.90;;;;;;5051673;28;20537;-54
2021/03/03 10:09:27;;;;;;;24.00;14.03;;;8.60;99.90;;;;;;5052108;28;20461;-54
2021/03/03 10:11:54;;;;;;;26.10;14.33;;;8.80;99.90;;;;;;5055054;28;20482;-53
2021/03/03 10:14:21;;;;;;;21.50;13.87;;;9.00;99.90;;;;;;5070937;28;20561;-54
2021/03/03 10:17:03;;;;;;;25.43;14.20;;;8.70;99.90;;;;;;5052674;28;20504;-53
2021/03/03 10:19:29;;;;;;;25.87;15.07;;;8.90;99.90;;;;;;5051424;28;20484;-53
2021/03/03 10:21:56;;;;;;;26.63;15.13;;;9.30;99.90;;;;;;5051309;28;21027;-54
2021/03/03 10:24:26;;;;;;;24.47;14.00;;;9.30;99.90;;;;;;5051032;28;20451;-53
2021/03/03 10:26:52;;;;;;;22.57;13.07;;;9.40;99.90;;;;;;5088539;22;20494;-49
2021/03/03 10:29:34;;;;;;;19.87;12.00;;;9.40;99.90;;;;;;5070182;28;20458;-49
2021/03/03 10:32:09;;;;;;;18.07;11.77;;;9.20;99.90;;;;;;5070764;28;20449;-50
2021/03/03 10:34:36;;;;;;;25.00;12.90;;;9.50;99.90;;;;;;5070736;28;20525;-49
2021/03/03 10:37:02;;;;;;;23.07;13.40;;;9.40;99.90;;;;;;5070671;28;20455;-49
2021/03/03 10:39:30;;;;;;;24.43;14.10;;;9.50;99.90;;;;;;5070787;28;20881;-49
2021/03/03 10:42:01;;;;;;;21.77;13.20;;;9.60;99.90;;;;;;5069987;28;20449;-49
2021/03/03 10:44:49;;;;;;;21.13;13.03;;;9.20;99.90;;;;;;5061848;28;20908;-49
2021/03/03 10:47:15;;;;;;;22.13;13.27;;;9.40;99.90;;;;;;5050734;28;20914;-49
2021/03/03 10:50:01;;;;;;;20.97;11.80;;;9.60;99.90;;;;;;5051145;28;20872;-49
2021/03/03 10:52:28;;;;;;;19.27;12.13;;;9.50;99.90;;;;;;5050578;28;20512;-50
2021/03/03 10:54:54;;;;;;;22.20;12.10;;;9.50;99.90;;;;;;5050701;28;20451;-50
2021/03/03 10:57:21;;;;;;;20.83;11.70;;;9.30;99.90;;;;;;5050747;28;20475;-50
2021/03/03 11:00:01;;;;;;;18.90;11.57;;;9.40;99.90;;;;;;5063777;28;20450;-50
2021/03/03 11:02:28;;;;;;;23.13;12.27;;;9.50;99.90;;;;;;5070384;28;20465;-50
2021/03/03 11:04:54;;;;;;;21.70;11.60;;;9.60;99.90;;;;;;5070313;28;20447;-50
2021/03/03 11:07:21;;;;;;;26.30;12.87;;;9.60;99.90;;;;;;5070430;28;20482;-50
2021/03/03 11:09:50;;;;;;;18.33;11.70;;;9.70;99.90;;;;;;5070713;28;20446;-50
2021/03/03 11:12:22;;;;;;;19.97;12.33;;;9.90;99.90;;;;;;5070642;28;20451;-50
2021/03/03 11:14:50;;;;;;;23.70;12.47;;;10.00;99.90;;;;;;5070275;28;21032;-50
2021/03/03 11:17:16;;;;;;;26.50;13.10;;;10.20;99.90;;;;;;5068531;28;20463;-49
2021/03/03 11:19:43;;;;;;;20.10;12.43;;;10.30;99.90;;;;;;5070254;28;20450;-50
2021/03/03 11:22:10;;;;;;;21.43;12.43;;;10.20;99.90;;;;;;5053964;28;20472;-50
2021/03/03 11:24:36;;;;;;;18.00;12.63;;;10.30;99.90;;;;;;5070278;28;20450;-50
2021/03/03 11:27:03;;;;;;;27.80;12.70;;;10.30;99.90;;;;;;5070245;28;20482;-50
2021/03/03 11:29:29;;;;;;;20.83;12.23;;;10.60;99.90;;;;;;5070347;28;20455;-50
2021/03/03 11:31:57;;;;;;;21.20;13.47;;;10.80;99.90;;;;;;5061329;28;20452;-50
2021/03/03 11:34:23;;;;;;;17.97;12.20;;;10.50;99.90;;;;;;5050165;28;20447;-50
2021/03/03 11:36:50;;;;;;;18.47;11.60;;;10.70;99.90;;;;;;5067492;28;20462;-50
2021/03/03 11:39:16;;;;;;;14.80;10.50;;;10.80;99.90;;;;;;5070306;28;20531;-50
2021/03/03 11:41:43;;;;;;;18.93;11.90;;;10.70;99.90;;;;;;5062282;28;20443;-50
2021/03/03 11:44:09;;;;;;;20.10;11.77;;;10.90;99.90;;;;;;5050269;28;20447;-50
2021/03/03 11:46:36;;;;;;;17.57;12.03;;;10.90;99.90;;;;;;5049568;28;21008;-50
2021/03/03 11:49:03;;;;;;;18.90;11.83;;;10.80;99.90;;;;;;5065251;28;20959;-50
2021/03/03 11:51:30;;;;;;;20.37;12.10;;;10.90;99.90;;;;;;5062704;28;20503;-50
2021/03/03 11:53:56;;;;;;;18.23;11.47;;;10.90;99.90;;;;;;5065576;28;20448;-50
2021/03/03 11:56:23;;;;;;;20.80;12.40;;;11.00;99.90;;;;;;5053800;28;20474;-50
2021/03/03 11:58:49;;;;;;;17.63;11.60;;;11.30;99.90;;;;;;5053882;28;20447;-51
2021/03/03 12:01:16;;;;;;;18.48;12.13;;;11.20;99.90;;;;;;5051674;28;20450;-50
2021/03/03 12:03:43;;;;;;;21.93;12.13;;;11.20;99.90;;;;;;5054257;28;20591;-51
2021/03/03 12:06:11;;;;;;;18.90;11.37;;;11.10;99.90;;;;;;5056159;28;21027;-50
2021/03/03 12:08:37;;;;;;;18.63;11.80;;;10.90;99.90;;;;;;5068352;28;20462;-51
2021/03/03 12:11:04;;;;;;;18.43;11.67;;;10.50;99.90;;;;;;5073017;28;20952;-51
2021/03/03 12:13:30;;;;;;;16.33;11.23;;;10.60;99.90;;;;;;5073064;28;20512;-51
2021/03/03 12:15:57;;;;;;;18.50;11.30;;;10.80;99.90;;;;;;5072959;28;20859;-51
2021/03/03 12:18:23;;;;;;;17.43;11.20;;;11.00;99.90;;;;;;5071931;28;20443;-50
2021/03/03 12:20:50;;;;;;;20.90;11.70;;;11.20;99.90;;;;;;5072195;28;20814;-51
2021/03/03 12:23:17;;;;;;;20.00;12.00;;;11.00;99.90;;;;;;5073024;28;20457;-51
2021/03/03 12:25:43;;;;;;;19.13;11.33;;;11.20;99.90;;;;;;5072267;28;20482;-51
2021/03/03 12:28:10;;;;;;;18.83;11.57;;;11.50;99.90;;;;;;5072662;28;20482;-51
2021/03/03 12:30:36;;;;;;;17.63;12.77;;;11.30;99.90;;;;;;5072974;28;20458;-51
2021/03/03 12:33:04;;;;;;;27.27;13.37;;;11.10;99.90;;;;;;5072813;28;20446;-51
2021/03/03 12:35:30;;;;;;;20.07;12.53;;;11.00;99.90;;;;;;5072647;28;20524;-51
2021/03/03 12:37:56;;;;;;;23.00;13.53;;;11.10;99.90;;;;;;5072008;28;20451;-51
2021/03/03 12:40:24;;;;;;;21.93;14.57;;;10.90;99.90;;;;;;5072273;28;20575;-51
2021/03/03 12:42:50;;;;;;;21.43;14.20;;;10.70;99.90;;;;;;5071969;28;20826;-51
2021/03/03 12:45:17;;;;;;;24.37;15.73;;;10.80;99.90;;;;;;5072486;28;20454;-51
2021/03/03 12:47:43;;;;;;;28.20;15.33;;;11.10;99.90;;;;;;5072408;28;20512;-51